createdAt,value
2023-01-27T00:00:40.209Z,3.85
2023-01-27T00:01:40.232Z,3.81
2023-01-27T00:02:40.287Z,3.84
2023-01-27T00:03:40.322Z,3.75
2023-01-27T00:04:40.295Z,3.81
2023-01-27T00:05:40.326Z,3.79
2023-01-27T00:06:40.338Z,3.84
2023-01-27T00:07:40.363Z,3.71
2023-01-27T00:08:40.391Z,3.72
2023-01-27T00:09:40.407Z,3.76
2023-01-27T00:10:40.442Z,3.69
2023-01-27T00:11:40.454Z,3.64
2023-01-27T00:12:40.474Z,3.66
2023-01-27T00:13:40.494Z,3.75
2023-01-27T00:14:40.535Z,3.74
2023-01-27T00:15:40.594Z,3.69
2023-01-27T00:16:40.559Z,3.69
2023-01-27T00:17:40.583Z,3.75
2023-01-27T00:18:40.604Z,3.71
2023-01-27T00:19:40.627Z,3.75
2023-01-27T00:20:40.647Z,3.72
2023-01-27T00:21:40.676Z,3.69
2023-01-27T00:22:40.700Z,3.67
2023-01-27T00:23:40.723Z,3.72
2023-01-27T00:24:40.736Z,3.75
2023-01-27T00:25:40.759Z,3.63
2023-01-27T00:26:40.784Z,3.74
2023-01-27T00:27:40.805Z,3.69
2023-01-27T00:28:40.823Z,3.69
2023-01-27T00:29:40.846Z,3.63
2023-01-27T00:30:40.958Z,3.63
2023-01-27T00:31:40.987Z,3.69
2023-01-27T00:32:40.911Z,3.74
2023-01-27T00:33:40.936Z,3.71
2023-01-27T00:34:40.954Z,3.76
2023-01-27T00:35:40.981Z,3.64
2023-01-27T00:36:40.999Z,3.66
2023-01-27T00:37:41.027Z,3.71
2023-01-27T00:38:41.067Z,3.66
2023-01-27T00:39:41.066Z,3.69
2023-01-27T00:40:41.086Z,3.64
2023-01-27T00:41:41.116Z,3.63
2023-01-27T00:42:41.130Z,3.66
2023-01-27T00:43:41.157Z,3.63
2023-01-27T00:44:41.174Z,3.72
2023-01-27T00:45:41.403Z,3.66
2023-01-27T00:46:41.385Z,3.71
2023-01-27T00:47:41.241Z,3.66
2023-01-27T00:48:41.266Z,3.66
2023-01-27T00:49:41.290Z,3.64
2023-01-27T00:50:41.306Z,3.60
2023-01-27T00:51:41.346Z,3.53
2023-01-27T00:52:41.349Z,3.69
2023-01-27T00:53:41.387Z,3.58
2023-01-27T00:54:41.398Z,3.51
2023-01-27T00:55:41.435Z,3.57
2023-01-27T00:56:41.437Z,3.60
2023-01-27T00:57:41.471Z,3.61
2023-01-27T00:58:41.478Z,3.64
2023-01-27T00:59:41.507Z,3.66
2023-01-27T01:00:41.523Z,3.71
2023-01-27T01:01:41.612Z,3.63
2023-01-27T01:02:41.643Z,3.60
2023-01-27T01:03:41.591Z,3.69
2023-01-27T01:04:41.613Z,3.69
2023-01-27T01:05:41.637Z,3.66
2023-01-27T01:06:41.667Z,3.69
2023-01-27T01:07:41.690Z,3.66
2023-01-27T01:08:41.714Z,3.74
2023-01-27T01:09:41.725Z,3.71
2023-01-27T01:10:41.746Z,3.64
2023-01-27T01:11:41.770Z,3.71
2023-01-27T01:12:41.790Z,3.75
2023-01-27T01:13:41.831Z,3.72
2023-01-27T01:14:41.850Z,3.82
2023-01-27T01:15:41.855Z,3.86
2023-01-27T01:16:41.885Z,3.86
2023-01-27T01:17:41.897Z,3.85
2023-01-27T01:18:41.942Z,3.85
2023-01-27T01:19:41.942Z,3.79
2023-01-27T01:20:41.964Z,3.89
2023-01-27T01:21:41.991Z,3.85
2023-01-27T01:22:42.014Z,3.96
2023-01-27T01:23:42.036Z,3.89
2023-01-27T01:24:42.055Z,3.89
2023-01-27T01:25:42.084Z,3.93
2023-01-27T01:26:42.105Z,3.92
2023-01-27T01:27:42.117Z,3.86
2023-01-27T01:28:42.142Z,3.89
2023-01-27T01:29:42.160Z,3.92
2023-01-27T01:30:42.197Z,3.93
2023-01-27T01:31:42.239Z,4.02
2023-01-27T01:32:42.233Z,3.92
2023-01-27T01:33:42.258Z,3.97
2023-01-27T01:34:42.293Z,3.97
2023-01-27T01:35:42.312Z,3.99
2023-01-27T01:36:42.315Z,4.08
2023-01-27T01:37:42.337Z,4.03
2023-01-27T01:38:42.360Z,4.00
2023-01-27T01:39:42.384Z,4.08
2023-01-27T01:40:42.404Z,4.02
2023-01-27T01:41:42.425Z,4.08
2023-01-27T01:42:42.452Z,4.07
2023-01-27T01:43:42.478Z,4.03
2023-01-27T01:44:42.491Z,4.04
2023-01-27T01:45:42.512Z,4.03
2023-01-27T01:46:42.579Z,4.08
2023-01-27T01:47:42.556Z,4.02
2023-01-27T01:48:42.633Z,4.02
2023-01-27T01:49:42.628Z,4.04
2023-01-27T01:50:42.649Z,4.00
2023-01-27T01:51:42.643Z,4.02
2023-01-27T01:52:42.667Z,4.02
2023-01-27T01:53:42.687Z,4.08
2023-01-27T01:54:42.729Z,4.04
2023-01-27T01:55:42.747Z,4.11
2023-01-27T01:56:42.763Z,4.10
2023-01-27T01:57:42.779Z,4.14
2023-01-27T01:59:42.829Z,4.00
2023-01-27T02:00:42.851Z,4.00
2023-01-27T02:01:42.867Z,4.04
2023-01-27T02:02:42.970Z,4.08
2023-01-27T02:03:42.906Z,4.10
2023-01-27T02:04:42.935Z,4.15
2023-01-27T02:05:42.952Z,4.11
2023-01-27T02:06:42.994Z,4.11
2023-01-27T02:07:42.995Z,4.11
2023-01-27T02:08:43.020Z,4.18
2023-01-27T02:09:43.044Z,4.15
2023-01-27T02:10:43.070Z,4.17
2023-01-27T02:11:43.085Z,4.17
2023-01-27T02:12:43.108Z,4.21
2023-01-27T02:13:43.126Z,4.11
2023-01-27T02:14:43.152Z,4.15
2023-01-27T02:15:43.171Z,4.14
2023-01-27T02:16:43.230Z,4.11
2023-01-27T02:17:43.216Z,4.11
2023-01-27T02:18:43.255Z,4.03
2023-01-27T02:19:43.259Z,4.08
2023-01-27T02:20:43.283Z,4.12
2023-01-27T02:21:43.303Z,4.11
2023-01-27T02:22:43.350Z,4.15
2023-01-27T02:23:43.349Z,4.20
2023-01-27T02:24:43.377Z,4.21
2023-01-27T02:25:43.395Z,4.17
2023-01-27T02:26:43.416Z,4.20
2023-01-27T02:27:43.436Z,4.18
2023-01-27T02:28:43.459Z,4.14
2023-01-27T02:29:43.484Z,4.22
2023-01-27T02:30:43.679Z,4.14
2023-01-27T02:31:43.656Z,4.10
2023-01-27T02:32:43.548Z,4.21
2023-01-27T02:33:43.567Z,4.20
2023-01-27T02:34:43.590Z,4.17
2023-01-27T02:35:43.612Z,4.12
2023-01-27T02:36:43.639Z,4.24
2023-01-27T02:37:43.656Z,4.10
2023-01-27T02:38:43.702Z,4.17
2023-01-27T02:39:43.701Z,4.21
2023-01-27T02:40:43.727Z,4.20
2023-01-27T02:41:43.745Z,4.28
2023-01-27T02:42:43.766Z,4.11
2023-01-27T02:43:43.793Z,4.18
2023-01-27T02:44:43.826Z,4.18
2023-01-27T02:45:43.832Z,4.18
2023-01-27T02:46:43.857Z,4.17
2023-01-27T02:47:43.880Z,4.21
2023-01-27T02:48:43.907Z,4.18
2023-01-27T02:49:43.920Z,4.17
2023-01-27T02:50:43.941Z,4.18
2023-01-27T02:51:43.962Z,4.14
2023-01-27T02:52:43.988Z,4.18
2023-01-27T02:53:44.106Z,4.17
2023-01-27T02:54:44.048Z,4.21
2023-01-27T02:55:44.051Z,4.17
2023-01-27T02:56:44.126Z,4.15
2023-01-27T02:57:44.094Z,4.18
2023-01-27T02:58:44.123Z,4.15
2023-01-27T02:59:44.140Z,4.14
2023-01-27T03:00:44.168Z,4.18
2023-01-27T03:01:44.331Z,4.24
2023-01-27T03:02:44.310Z,4.20
2023-01-27T03:03:44.443Z,4.18
2023-01-27T03:04:44.249Z,4.17
2023-01-27T03:05:44.271Z,4.21
2023-01-27T03:06:44.319Z,4.22
2023-01-27T03:07:44.329Z,4.18
2023-01-27T03:08:44.348Z,4.18
2023-01-27T03:09:44.360Z,4.18
2023-01-27T03:10:44.408Z,4.18
2023-01-27T03:11:44.405Z,4.18
2023-01-27T03:12:44.424Z,4.10
2023-01-27T03:13:44.452Z,4.15
2023-01-27T03:14:44.471Z,4.12
2023-01-27T03:15:44.535Z,4.12
2023-01-27T03:16:44.519Z,4.21
2023-01-27T03:17:44.536Z,4.20
2023-01-27T03:18:44.558Z,4.12
2023-01-27T03:19:44.578Z,4.18
2023-01-27T03:20:44.601Z,4.17
2023-01-27T03:21:44.625Z,4.20
2023-01-27T03:22:44.646Z,4.18
2023-01-27T03:23:44.669Z,4.12
2023-01-27T03:24:44.689Z,4.21
2023-01-27T03:25:44.723Z,4.20
2023-01-27T03:26:44.757Z,4.17
2023-01-27T03:27:44.755Z,4.15
2023-01-27T03:28:44.782Z,4.11
2023-01-27T03:29:44.799Z,4.12
2023-01-27T03:30:44.919Z,4.24
2023-01-27T03:31:44.922Z,4.15
2023-01-27T03:32:44.865Z,4.21
2023-01-27T03:33:44.885Z,4.21
2023-01-27T03:34:44.909Z,4.24
2023-01-27T03:35:44.930Z,4.22
2023-01-27T03:36:44.981Z,4.18
2023-01-27T03:37:44.973Z,4.17
2023-01-27T03:38:44.998Z,4.18
2023-01-27T03:39:45.024Z,4.18
2023-01-27T03:40:45.042Z,4.24
2023-01-27T03:41:45.063Z,4.18
2023-01-27T03:42:45.107Z,4.11
2023-01-27T03:43:45.108Z,4.17
2023-01-27T03:44:45.133Z,4.11
2023-01-27T03:45:45.153Z,4.21
2023-01-27T03:46:45.176Z,4.20
2023-01-27T03:47:45.193Z,4.17
2023-01-27T03:48:45.231Z,4.11
2023-01-27T03:49:45.246Z,4.22
2023-01-27T03:50:45.264Z,4.18
2023-01-27T03:51:45.282Z,4.12
2023-01-27T03:52:45.307Z,4.17
2023-01-27T03:53:45.327Z,4.20
2023-01-27T03:54:45.349Z,4.18
2023-01-27T03:55:45.371Z,4.21
2023-01-27T03:56:45.394Z,4.18
2023-01-27T03:57:45.415Z,4.21
2023-01-27T03:58:45.465Z,4.20
2023-01-27T03:59:45.458Z,4.21
2023-01-27T04:00:45.490Z,4.10
2023-01-27T04:01:45.592Z,4.11
2023-01-27T04:02:45.616Z,4.17
2023-01-27T04:03:45.552Z,4.18
2023-01-27T04:04:45.591Z,4.18
2023-01-27T04:05:45.593Z,4.12
2023-01-27T04:06:45.627Z,4.20
2023-01-27T04:07:45.645Z,4.15
2023-01-27T04:08:45.658Z,4.17
2023-01-27T04:09:45.678Z,4.17
2023-01-27T04:10:45.702Z,4.18
2023-01-27T04:11:45.728Z,4.17
2023-01-27T04:12:45.746Z,4.18
2023-01-27T04:13:45.768Z,4.11
2023-01-27T04:14:45.807Z,4.21
2023-01-27T04:15:45.859Z,4.15
2023-01-27T04:16:45.833Z,4.21
2023-01-27T04:17:45.863Z,4.18
2023-01-27T04:18:45.876Z,4.20
2023-01-27T04:19:45.899Z,4.11
2023-01-27T04:20:45.921Z,4.21
2023-01-27T04:21:45.947Z,4.21
2023-01-27T04:22:45.969Z,4.07
2023-01-27T04:23:45.989Z,4.15
2023-01-27T04:24:46.011Z,4.14
2023-01-27T04:25:46.032Z,4.08
2023-01-27T04:26:46.052Z,4.11
2023-01-27T04:27:46.079Z,4.10
2023-01-27T04:28:46.098Z,4.12
2023-01-27T04:29:46.120Z,4.20
2023-01-27T04:30:46.174Z,4.15
2023-01-27T04:31:46.217Z,4.12
2023-01-27T04:32:46.188Z,4.08
2023-01-27T04:33:46.207Z,4.07
2023-01-27T04:34:46.231Z,4.08
2023-01-27T04:35:46.251Z,4.12
2023-01-27T04:36:46.276Z,4.12
2023-01-27T04:37:46.296Z,4.18
2023-01-27T04:38:46.318Z,4.14
2023-01-27T04:39:46.338Z,4.08
2023-01-27T04:40:46.362Z,4.08
2023-01-27T04:41:46.390Z,4.02
2023-01-27T04:42:46.407Z,4.02
2023-01-27T04:43:46.425Z,4.10
2023-01-27T04:44:46.459Z,4.10
2023-01-27T04:45:46.739Z,4.04
2023-01-27T04:46:46.523Z,4.07
2023-01-27T04:47:46.514Z,4.07
2023-01-27T04:48:46.547Z,4.07
2023-01-27T04:49:46.558Z,4.04
2023-01-27T04:50:46.593Z,3.99
2023-01-27T04:51:47.459Z,4.02
2023-01-27T04:52:46.627Z,4.04
2023-01-27T04:53:46.656Z,4.03
2023-01-27T04:54:46.670Z,3.96
2023-01-27T04:55:46.693Z,4.03
2023-01-27T04:56:46.714Z,4.15
2023-01-27T04:57:46.734Z,4.08
2023-01-27T04:58:46.758Z,4.03
2023-01-27T04:59:46.778Z,4.11
2023-01-27T05:00:46.802Z,4.02
2023-01-27T05:01:46.848Z,4.11
2023-01-27T05:02:46.912Z,4.04
2023-01-27T05:03:46.872Z,4.04
2023-01-27T05:04:46.893Z,4.03
2023-01-27T05:05:46.918Z,4.08
2023-01-27T05:06:46.939Z,4.07
2023-01-27T05:07:46.957Z,4.03
2023-01-27T05:08:46.995Z,4.00
2023-01-27T05:09:47.001Z,4.07
2023-01-27T05:10:47.022Z,4.10
2023-01-27T05:11:47.049Z,4.07
2023-01-27T05:12:47.072Z,4.15
2023-01-27T05:13:47.085Z,3.99
2023-01-27T05:14:47.108Z,4.08
2023-01-27T05:15:47.205Z,3.99
2023-01-27T05:16:47.179Z,4.14
2023-01-27T05:17:47.174Z,4.18
2023-01-27T05:18:47.215Z,4.11
2023-01-27T05:19:47.219Z,4.11
2023-01-27T05:20:47.250Z,4.11
2023-01-27T05:21:47.261Z,4.04
2023-01-27T05:22:47.283Z,4.11
2023-01-27T05:23:47.320Z,4.10
2023-01-27T05:24:47.331Z,4.14
2023-01-27T05:25:47.350Z,4.12
2023-01-27T05:26:47.370Z,4.12
2023-01-27T05:27:47.394Z,4.17
2023-01-27T05:28:47.426Z,4.14
2023-01-27T05:29:47.442Z,4.18
2023-01-27T05:30:47.501Z,4.12
2023-01-27T05:31:47.519Z,4.04
2023-01-27T05:32:47.506Z,4.21
2023-01-27T05:33:47.528Z,4.18
2023-01-27T05:34:47.564Z,4.20
2023-01-27T05:35:47.579Z,4.17
2023-01-27T05:36:47.598Z,4.22
2023-01-27T05:37:47.614Z,4.15
2023-01-27T05:38:47.633Z,4.18
2023-01-27T05:39:47.678Z,4.18
2023-01-27T05:40:47.677Z,4.15
2023-01-27T05:41:47.707Z,4.14
2023-01-27T05:42:47.722Z,4.17
2023-01-27T05:43:47.748Z,4.18
2023-01-27T05:44:49.663Z,4.26
2023-01-27T05:45:47.788Z,4.22
2023-01-27T05:46:47.891Z,4.29
2023-01-27T05:47:47.841Z,4.20
2023-01-27T05:48:47.869Z,4.12
2023-01-27T05:49:47.890Z,4.12
2023-01-27T05:50:47.933Z,4.12
2023-01-27T05:51:47.942Z,4.21
2023-01-27T05:52:47.943Z,4.20
2023-01-27T05:53:47.965Z,4.26
2023-01-27T05:54:47.998Z,4.21
2023-01-27T05:55:48.009Z,4.21
2023-01-27T05:56:48.029Z,4.18
2023-01-27T05:57:48.059Z,4.22
2023-01-27T05:58:48.075Z,4.22
2023-01-27T05:59:48.095Z,4.20
2023-01-27T06:00:48.119Z,4.24
2023-01-27T06:01:48.157Z,4.21
2023-01-27T06:02:48.207Z,4.24
2023-01-27T06:03:48.188Z,4.24
2023-01-27T06:04:48.205Z,4.30
2023-01-27T06:05:48.229Z,4.18
2023-01-27T06:06:48.267Z,4.28
2023-01-27T06:07:48.277Z,4.30
2023-01-27T06:08:48.298Z,4.28
2023-01-27T06:09:48.316Z,4.29
2023-01-27T06:10:48.337Z,4.26
2023-01-27T06:11:48.367Z,4.24
2023-01-27T06:12:48.382Z,4.21
2023-01-27T06:13:48.419Z,4.30
2023-01-27T06:14:48.429Z,4.30
2023-01-27T06:15:48.461Z,4.28
2023-01-27T06:16:48.503Z,4.24
2023-01-27T06:17:48.492Z,4.21
2023-01-27T06:18:48.509Z,4.28
2023-01-27T06:19:48.537Z,4.24
2023-01-27T06:20:48.556Z,4.30
2023-01-27T06:21:48.582Z,4.24
2023-01-27T06:22:48.624Z,4.22
2023-01-27T06:23:48.630Z,4.28
2023-01-27T06:24:48.645Z,4.26
2023-01-27T06:25:48.673Z,4.24
2023-01-27T06:26:48.697Z,4.29
2023-01-27T06:27:48.710Z,4.32
2023-01-27T06:28:48.732Z,4.22
2023-01-27T06:29:48.757Z,4.26
2023-01-27T06:30:48.792Z,4.26
2023-01-27T06:31:48.812Z,4.30
2023-01-27T06:32:48.820Z,4.24
2023-01-27T06:33:48.845Z,4.38
2023-01-27T06:34:48.864Z,4.24
2023-01-27T06:35:48.891Z,4.32
2023-01-27T06:36:48.908Z,4.32
2023-01-27T06:37:48.933Z,4.28
2023-01-27T06:38:48.977Z,4.28
2023-01-27T06:39:48.977Z,4.29
2023-01-27T06:40:48.998Z,4.30
2023-01-27T06:41:49.018Z,4.24
2023-01-27T06:42:49.046Z,4.29
2023-01-27T06:43:49.065Z,4.28
2023-01-27T06:44:49.085Z,4.28
2023-01-27T06:45:49.110Z,4.24
2023-01-27T06:46:49.130Z,4.32
2023-01-27T06:47:49.154Z,4.29
2023-01-27T06:48:49.173Z,4.28
2023-01-27T06:49:49.197Z,4.26
2023-01-27T06:50:49.220Z,4.28
2023-01-27T06:51:49.241Z,4.39
2023-01-27T06:52:49.261Z,4.32
2023-01-27T06:53:49.291Z,4.40
2023-01-27T06:54:49.329Z,4.38
2023-01-27T06:55:49.336Z,4.35
2023-01-27T06:56:49.353Z,4.35
2023-01-27T06:57:49.390Z,4.39
2023-01-27T06:58:49.398Z,4.38
2023-01-27T06:59:49.417Z,4.54
2023-01-27T07:00:49.445Z,4.36
2023-01-27T07:01:49.500Z,4.40
2023-01-27T07:02:49.541Z,4.39
2023-01-27T07:03:49.519Z,4.36
2023-01-27T07:04:49.525Z,4.38
2023-01-27T07:05:49.549Z,4.32
2023-01-27T07:06:49.569Z,4.39
2023-01-27T07:07:49.603Z,4.44
2023-01-27T07:08:49.645Z,4.40
2023-01-27T07:09:52.592Z,4.36
2023-01-27T07:10:49.680Z,4.44
2023-01-27T07:11:49.685Z,4.44
2023-01-27T07:12:49.704Z,4.35
2023-01-27T07:13:49.727Z,4.47
2023-01-27T07:14:49.749Z,4.48
2023-01-27T07:15:49.771Z,4.39
2023-01-27T07:16:49.809Z,4.51
2023-01-27T07:17:49.816Z,4.50
2023-01-27T07:18:49.835Z,4.50
2023-01-27T07:19:49.861Z,4.51
2023-01-27T07:20:49.886Z,4.51
2023-01-27T07:21:49.915Z,4.57
2023-01-27T07:22:49.921Z,4.53
2023-01-27T07:23:50.033Z,4.56
2023-01-27T07:24:49.969Z,4.53
2023-01-27T07:25:49.991Z,4.61
2023-01-27T07:26:50.027Z,4.51
2023-01-27T07:27:50.035Z,4.56
2023-01-27T07:28:50.055Z,4.51
2023-01-27T07:29:50.079Z,4.51
2023-01-27T07:30:50.135Z,4.48
2023-01-27T07:31:50.199Z,4.50
2023-01-27T07:32:50.146Z,4.60
2023-01-27T07:33:50.198Z,4.58
2023-01-27T07:34:50.189Z,4.60
2023-01-27T07:35:50.265Z,4.58
2023-01-27T07:36:50.233Z,4.56
2023-01-27T07:37:50.265Z,4.57
2023-01-27T07:38:50.276Z,4.69
2023-01-27T07:39:50.299Z,4.56
2023-01-27T07:40:50.322Z,4.69
2023-01-27T07:41:50.346Z,4.69
2023-01-27T07:42:50.384Z,4.56
2023-01-27T07:43:52.286Z,4.66
2023-01-27T07:44:50.408Z,4.68
2023-01-27T07:45:50.477Z,4.64
2023-01-27T07:46:50.451Z,4.69
2023-01-27T07:47:50.477Z,4.66
2023-01-27T07:48:50.518Z,4.69
2023-01-27T07:49:50.522Z,4.66
2023-01-27T07:50:50.542Z,4.68
2023-01-27T07:51:50.567Z,4.66
2023-01-27T07:52:50.587Z,4.69
2023-01-27T07:53:50.616Z,4.76
2023-01-27T07:54:50.630Z,4.75
2023-01-27T07:55:50.655Z,4.71
2023-01-27T07:56:50.826Z,4.74
2023-01-27T07:57:50.698Z,4.69
2023-01-27T07:58:50.746Z,4.75
2023-01-27T07:59:50.744Z,4.76
2023-01-27T08:00:50.832Z,4.76
2023-01-27T08:01:50.791Z,4.84
2023-01-27T08:02:50.873Z,4.83
2023-01-27T08:03:50.836Z,4.78
2023-01-27T08:04:53.219Z,4.83
2023-01-27T08:05:50.877Z,4.87
2023-01-27T08:06:50.900Z,4.92
2023-01-27T08:07:50.922Z,4.88
2023-01-27T08:08:50.944Z,4.88
2023-01-27T08:09:50.967Z,4.95
2023-01-27T08:10:50.995Z,4.98
2023-01-27T08:11:51.012Z,4.98
2023-01-27T08:12:51.109Z,5.02
2023-01-27T08:13:51.056Z,5.06
2023-01-27T08:14:51.097Z,5.13
2023-01-27T08:15:51.111Z,5.15
2023-01-27T08:16:51.177Z,5.09
2023-01-27T08:17:51.158Z,5.13
2023-01-27T08:18:51.166Z,5.16
2023-01-27T08:19:51.207Z,5.24
2023-01-27T08:20:51.212Z,5.15
2023-01-27T08:21:51.237Z,5.21
2023-01-27T08:22:51.259Z,5.23
2023-01-27T08:23:51.351Z,5.20
2023-01-27T08:24:51.311Z,5.24
2023-01-27T08:25:51.330Z,5.18
2023-01-27T08:26:51.348Z,5.18
2023-01-27T08:27:51.370Z,5.15
2023-01-27T08:28:51.393Z,5.16
2023-01-27T08:29:51.417Z,5.12
2023-01-27T08:30:51.541Z,5.12
2023-01-27T08:31:51.523Z,5.13
2023-01-27T08:32:51.493Z,5.18
2023-01-27T08:33:51.507Z,5.20
2023-01-27T08:34:51.527Z,5.23
2023-01-27T08:35:51.552Z,5.21
2023-01-27T08:36:51.573Z,5.23
2023-01-27T08:37:51.616Z,5.26
2023-01-27T08:38:51.621Z,5.31
2023-01-27T08:39:51.659Z,5.30
2023-01-27T08:40:51.664Z,5.36
2023-01-27T08:41:51.686Z,5.37
2023-01-27T08:42:51.710Z,5.28
2023-01-27T08:43:51.735Z,5.36
2023-01-27T08:44:51.752Z,5.39
2023-01-27T08:45:51.847Z,5.45
2023-01-27T08:46:51.817Z,5.48
2023-01-27T08:47:51.821Z,5.55
2023-01-27T08:48:51.842Z,5.52
2023-01-27T08:49:51.876Z,5.55
2023-01-27T08:50:51.901Z,5.54
2023-01-27T08:51:51.915Z,5.60
2023-01-27T08:52:51.938Z,5.70
2023-01-27T08:53:51.960Z,5.70
2023-01-27T08:54:51.981Z,5.81
2023-01-27T08:55:52.005Z,5.73
2023-01-27T08:56:52.030Z,5.75
2023-01-27T08:57:52.053Z,5.80
2023-01-27T08:58:52.085Z,5.87
2023-01-27T08:59:52.105Z,5.88
2023-01-27T09:00:52.171Z,5.95
2023-01-27T09:01:52.142Z,5.92
2023-01-27T09:02:52.183Z,5.99
2023-01-27T09:03:52.197Z,5.98
2023-01-27T09:04:52.273Z,6.06
2023-01-27T09:05:52.235Z,6.07
2023-01-27T09:06:52.254Z,6.00
2023-01-27T09:07:52.283Z,6.06
2023-01-27T09:08:52.301Z,6.07
2023-01-27T09:10:01.014Z,6.06
2023-01-27T09:10:52.353Z,6.06
2023-01-27T09:11:52.373Z,5.99
2023-01-27T09:12:52.393Z,5.99
2023-01-27T09:13:52.417Z,5.98
2023-01-27T09:14:52.439Z,5.89
2023-01-27T09:15:52.556Z,5.88
2023-01-27T09:16:52.491Z,6.02
2023-01-27T09:17:52.511Z,5.96
2023-01-27T09:18:52.550Z,5.92
2023-01-27T09:19:52.557Z,5.98
2023-01-27T09:20:52.586Z,6.00
2023-01-27T09:21:52.619Z,5.99
2023-01-27T09:22:52.625Z,6.03
2023-01-27T09:23:52.700Z,6.05
2023-01-27T09:24:52.672Z,6.02
2023-01-27T09:25:52.700Z,6.02
2023-01-27T09:26:52.717Z,6.05
2023-01-27T09:27:52.742Z,6.03
2023-01-27T09:28:52.779Z,6.05
2023-01-27T09:29:52.995Z,6.14
2023-01-27T09:30:52.915Z,6.24
2023-01-27T09:31:52.890Z,6.21
2023-01-27T09:32:52.857Z,6.17
2023-01-27T09:33:53.004Z,6.33
2023-01-27T09:34:52.972Z,6.26
2023-01-27T09:35:52.941Z,6.34
2023-01-27T09:36:52.999Z,6.40
2023-01-27T09:37:52.976Z,6.42
2023-01-27T09:38:52.999Z,6.39
2023-01-27T09:39:53.021Z,6.37
2023-01-27T09:40:53.048Z,6.34
2023-01-27T09:41:53.075Z,6.33
2023-01-27T09:42:53.241Z,6.39
2023-01-27T09:43:53.112Z,6.40
2023-01-27T09:44:53.137Z,6.44
2023-01-27T09:45:53.248Z,6.46
2023-01-27T09:46:53.184Z,6.47
2023-01-27T09:47:53.220Z,6.52
2023-01-27T09:48:53.230Z,6.55
2023-01-27T09:49:53.252Z,6.57
2023-01-27T09:50:53.339Z,6.57
2023-01-27T09:51:53.299Z,6.54
2023-01-27T09:52:53.326Z,6.52
2023-01-27T09:53:53.350Z,6.40
2023-01-27T09:54:53.377Z,6.43
2023-01-27T09:55:53.402Z,6.55
2023-01-27T09:56:53.431Z,6.67
2023-01-27T09:57:53.442Z,6.62
2023-01-27T09:58:53.470Z,6.58
2023-01-27T09:59:53.486Z,6.62
2023-01-27T10:00:53.512Z,6.60
2023-01-27T10:01:53.532Z,6.64
2023-01-27T10:02:53.557Z,6.67
2023-01-27T10:03:53.578Z,6.61
2023-01-27T10:04:53.758Z,6.73
2023-01-27T10:05:53.627Z,6.78
2023-01-27T10:06:53.693Z,6.65
2023-01-27T10:07:53.675Z,6.62
2023-01-27T10:08:53.701Z,6.75
2023-01-27T10:09:53.723Z,6.75
2023-01-27T10:10:53.746Z,6.79
2023-01-27T10:11:53.768Z,6.83
2023-01-27T10:12:53.797Z,6.75
2023-01-27T10:13:53.816Z,6.79
2023-01-27T10:14:53.845Z,6.94
2023-01-27T10:15:53.947Z,6.93
2023-01-27T10:16:53.892Z,6.90
2023-01-27T10:17:53.916Z,6.91
2023-01-27T10:18:53.934Z,6.90
2023-01-27T10:19:53.959Z,6.95
2023-01-27T10:21:36.533Z,7.11
2023-01-27T10:22:36.787Z,7.08
2023-01-27T10:23:36.575Z,6.98
2023-01-27T10:24:36.695Z,7.03
2023-01-27T10:25:36.619Z,7.08
2023-01-27T10:26:36.756Z,7.22
2023-01-27T10:27:36.667Z,7.23
2023-01-27T10:28:36.692Z,7.23
2023-01-27T10:29:36.714Z,7.18
2023-01-27T10:30:36.779Z,7.22
2023-01-27T10:31:36.841Z,7.29
2023-01-27T10:32:36.787Z,7.23
2023-01-27T10:33:36.810Z,7.22
2023-01-27T10:34:36.839Z,7.29
2023-01-27T10:35:36.860Z,7.22
2023-01-27T10:36:36.887Z,7.27
2023-01-27T10:37:36.906Z,7.23
2023-01-27T10:38:36.967Z,7.21
2023-01-27T10:39:36.955Z,7.19
2023-01-27T10:40:37.001Z,7.16
2023-01-27T10:41:37.005Z,7.09
2023-01-27T10:42:37.033Z,7.03
2023-01-27T10:43:37.048Z,7.11
2023-01-27T10:44:37.078Z,7.05
2023-01-27T10:45:37.119Z,6.93
2023-01-27T10:46:37.131Z,6.85
2023-01-27T10:47:37.144Z,6.91
2023-01-27T10:48:37.174Z,6.94
2023-01-27T10:49:37.193Z,7.03
2023-01-27T10:50:37.235Z,7.08
2023-01-27T10:51:37.255Z,6.98
2023-01-27T10:52:37.270Z,6.95
2023-01-27T10:53:37.289Z,7.00
2023-01-27T10:54:37.337Z,6.98
2023-01-27T10:55:37.336Z,7.03
2023-01-27T10:56:37.361Z,7.08
2023-01-27T10:57:37.382Z,7.03
2023-01-27T10:58:37.409Z,7.11
2023-01-27T10:59:37.430Z,6.94
2023-01-27T11:01:05.026Z,7.04
2023-01-27T11:01:37.565Z,7.12
2023-01-27T11:02:37.503Z,7.26
2023-01-27T11:03:37.527Z,7.29
2023-01-27T11:04:37.549Z,7.34
2023-01-27T11:05:37.573Z,7.49
2023-01-27T11:06:37.605Z,7.45
2023-01-27T11:07:37.621Z,7.59
2023-01-27T11:08:37.659Z,7.70
2023-01-27T11:09:37.675Z,7.64
2023-01-27T11:10:37.714Z,7.59
2023-01-27T11:11:37.728Z,7.68
2023-01-27T11:12:37.743Z,7.80
2023-01-27T11:13:37.765Z,8.01
2023-01-27T11:14:38.898Z,8.06
2023-01-27T11:15:37.812Z,7.93
2023-01-27T11:16:37.907Z,7.99
2023-01-27T11:17:37.868Z,7.85
2023-01-27T11:18:37.893Z,7.98
2023-01-27T11:19:37.913Z,7.83
2023-01-27T11:20:38.741Z,7.80
2023-01-27T11:21:40.575Z,7.77
2023-01-27T11:22:37.979Z,7.80
2023-01-27T11:23:38.003Z,7.77
2023-01-27T11:24:39.233Z,7.80
2023-01-27T11:25:38.062Z,7.83
2023-01-27T11:26:38.415Z,7.71
2023-01-27T11:28:45.692Z,7.88
2023-01-27T11:29:45.985Z,7.85
2023-01-27T11:30:45.768Z,7.82
2023-01-27T11:31:45.789Z,7.88
2023-01-27T11:32:46.505Z,7.98
2023-01-27T11:33:45.805Z,7.85
2023-01-27T11:34:45.839Z,7.77
2023-01-27T11:35:46.046Z,7.71
2023-01-27T11:36:46.550Z,7.64
2023-01-27T11:37:45.917Z,7.68
2023-01-27T11:39:48.762Z,7.73
2023-01-27T11:40:45.984Z,7.73
2023-01-27T11:41:46.811Z,7.70
2023-01-27T11:43:46.026Z,7.64
2023-01-27T11:44:46.859Z,7.55
2023-01-27T11:45:46.131Z,7.73
2023-01-27T11:46:46.114Z,7.77
2023-01-27T11:47:46.125Z,7.78
2023-01-27T11:48:46.345Z,7.78
2023-01-27T11:49:46.159Z,7.71
2023-01-27T11:50:46.198Z,7.73
2023-01-27T11:51:46.204Z,7.67
2023-01-27T11:52:48.864Z,7.64
2023-01-27T11:53:46.260Z,7.70
2023-01-27T11:54:46.293Z,7.63
2023-01-27T11:55:46.309Z,7.63
2023-01-27T11:56:46.324Z,7.49
2023-01-27T11:57:46.363Z,7.51
2023-01-27T11:58:46.373Z,7.48
2023-01-27T11:59:46.399Z,7.48
2023-01-27T12:00:46.432Z,7.58
2023-01-27T12:01:46.442Z,7.48
2023-01-27T12:02:46.472Z,7.68
2023-01-27T12:03:46.519Z,7.67
2023-01-27T12:04:46.591Z,7.71
2023-01-27T12:05:46.537Z,7.75
2023-01-27T12:06:46.565Z,7.82
2023-01-27T12:07:46.585Z,7.86
2023-01-27T12:08:46.647Z,7.88
2023-01-27T12:09:46.651Z,7.75
2023-01-27T12:10:46.662Z,7.80
2023-01-27T12:11:46.683Z,7.68
2023-01-27T12:12:46.708Z,7.73
2023-01-27T12:13:49.373Z,7.70
2023-01-27T12:14:46.757Z,7.78
2023-01-27T12:15:49.473Z,7.67
2023-01-27T12:16:50.505Z,7.75
2023-01-27T12:17:47.646Z,7.67
2023-01-27T12:18:46.858Z,7.77
2023-01-27T12:19:50.907Z,7.82
2023-01-27T12:20:46.901Z,7.89
2023-01-27T12:21:46.932Z,7.99
2023-01-27T12:22:48.152Z,7.93
2023-01-27T12:23:46.975Z,7.99
2023-01-27T12:25:49.616Z,8.03
2023-01-27T12:26:49.650Z,8.03
2023-01-27T12:27:47.047Z,7.88
2023-01-27T12:28:47.075Z,7.82
2023-01-27T12:29:49.756Z,7.78
2023-01-27T12:31:31.263Z,7.74
2023-01-27T12:32:29.707Z,7.77
2023-01-27T12:33:29.714Z,7.68
2023-01-27T12:34:29.741Z,7.64
2023-01-27T12:35:29.761Z,7.70
2023-01-27T12:36:30.493Z,7.64
2023-01-27T12:37:29.813Z,7.68
2023-01-27T12:38:32.527Z,7.49
2023-01-27T12:39:29.853Z,7.51
2023-01-27T12:40:30.068Z,7.47
2023-01-27T12:42:32.538Z,7.55
2023-01-27T12:44:15.099Z,7.58
2023-01-27T12:47:08.283Z,7.68
2023-01-27T12:52:34.266Z,7.59
2023-01-27T12:53:33.501Z,7.48
2023-01-27T12:54:33.501Z,7.59
2023-01-27T12:55:33.575Z,7.59
2023-01-27T12:56:33.554Z,7.51
2023-01-27T12:57:33.571Z,7.56
2023-01-27T12:58:33.599Z,7.59
2023-01-27T12:59:33.620Z,7.45
2023-01-27T13:00:33.690Z,7.52
2023-01-27T13:01:33.711Z,7.51
2023-01-27T13:02:33.709Z,7.48
2023-01-27T13:03:33.746Z,7.55
2023-01-27T13:04:35.460Z,7.49
2023-01-27T13:05:33.763Z,7.51
2023-01-27T13:06:33.782Z,7.51
2023-01-27T13:07:33.825Z,7.49
2023-01-27T13:08:33.841Z,7.63
2023-01-27T13:09:33.890Z,7.56
2023-01-27T13:10:33.879Z,7.67
2023-01-27T13:11:33.901Z,7.61
2023-01-27T13:12:33.926Z,7.67
2023-01-27T13:13:33.964Z,7.63
2023-01-27T13:14:34.020Z,7.55
2023-01-27T13:15:34.004Z,7.70
2023-01-27T13:16:34.049Z,7.52
2023-01-27T13:17:34.046Z,7.48
2023-01-27T13:18:34.092Z,7.49
2023-01-27T13:19:34.099Z,7.56
2023-01-27T13:20:34.120Z,7.47
2023-01-27T13:21:34.194Z,7.49
2023-01-27T13:22:34.168Z,7.47
2023-01-27T13:23:34.198Z,7.47
2023-01-27T13:24:34.220Z,7.44
2023-01-27T13:25:34.247Z,7.44
2023-01-27T13:26:34.267Z,7.41
2023-01-27T13:27:34.291Z,7.40
2023-01-27T13:28:50.174Z,7.45
2023-01-27T13:29:34.340Z,7.45
2023-01-27T13:30:34.399Z,7.47
2023-01-27T13:31:34.432Z,7.51
2023-01-27T13:32:34.408Z,7.41
2023-01-27T13:33:34.434Z,7.37